Time,TemperatureF,DewpointF,PressureIn,WindDirection,WindDirectionDegrees,WindSpeedMPH,WindSpeedGustMPH,Humidity,HourlyPrecipIn,Conditions,Clouds,dailyrainin,SoftwareType,DateUTC
2013-03-15 00:02:00,66.0,60.0,-100.00,NNE,16,2.0,5.0,81,0.00,,,0.00,,2013-03-15 10:02:00,
2013-03-15 00:12:00,66.0,60.0,-100.00,NNE,16,2.0,5.0,81,0.00,,,0.00,,2013-03-15 10:12:00,
2013-03-15 00:23:00,66.0,60.0,-100.00,NNE,16,2.0,5.0,81,0.00,,,0.00,,2013-03-15 10:23:00,
2013-03-15 00:32:00,66.0,60.0,-100.00,NNE,16,2.0,5.0,81,0.00,,,0.00,,2013-03-15 10:32:00,
2013-03-15 00:41:00,65.0,60.0,-100.00,North,6,3.0,5.0,83,0.00,,,0.00,,2013-03-15 10:41:00,
2013-03-15 01:02:00,65.0,60.0,-100.00,North,6,3.0,5.0,83,0.00,,,0.00,,2013-03-15 11:02:00,
2013-03-15 01:12:00,65.0,60.0,-100.00,North,6,3.0,5.0,83,0.00,,,0.00,,2013-03-15 11:12:00,
2013-03-15 01:22:00,65.0,60.0,-100.00,North,6,3.0,5.0,83,0.00,,,0.00,,2013-03-15 11:22:00,
2013-03-15 01:32:00,65.0,60.0,-100.00,North,6,3.0,5.0,83,0.00,,,0.00,,2013-03-15 11:32:00,
2013-03-15 01:41:00,65.0,61.0,-100.00,NNE,33,4.0,6.0,86,0.00,,,0.00,,2013-03-15 11:41:00,
2013-03-15 02:02:00,65.0,61.0,-100.00,NNE,33,4.0,6.0,86,0.00,,,0.00,,2013-03-15 12:02:00,
2013-03-15 02:12:00,65.0,61.0,-100.00,NNE,33,4.0,6.0,86,0.00,,,0.00,,2013-03-15 12:12:00,
2013-03-15 02:22:00,65.0,61.0,-100.00,NNE,33,4.0,6.0,86,0.00,,,0.00,,2013-03-15 12:22:00,
2013-03-15 02:32:00,65.0,61.0,-100.00,NNE,33,4.0,6.0,86,0.00,,,0.00,,2013-03-15 12:32:00,
2013-03-15 02:41:00,64.0,59.0,-100.00,NE,39,3.0,6.0,85,0.00,,,0.00,,2013-03-15 12:41:00,
2013-03-15 03:02:00,64.0,59.0,-100.00,NE,39,3.0,6.0,85,0.00,,,0.00,,2013-03-15 13:02:00,
2013-03-15 03:12:00,64.0,59.0,-100.00,NE,39,3.0,6.0,85,0.00,,,0.00,,2013-03-15 13:12:00,
2013-03-15 03:22:00,64.0,59.0,-100.00,NE,39,3.0,6.0,85,0.00,,,0.00,,2013-03-15 13:22:00,
2013-03-15 03:32:00,64.0,59.0,-100.00,NE,39,3.0,6.0,85,0.00,,,0.00,,2013-03-15 13:32:00,
2013-03-15 03:41:00,63.0,59.0,-100.00,North,7,2.0,5.0,87,0.00,,,0.00,,2013-03-15 13:41:00,
2013-03-15 04:02:00,63.0,59.0,-100.00,North,7,2.0,5.0,87,0.00,,,0.00,,2013-03-15 14:02:00,
2013-03-15 04:12:00,63.0,59.0,-100.00,North,7,2.0,5.0,87,0.00,,,0.00,,2013-03-15 14:12:00,
2013-03-15 04:22:00,63.0,59.0,-100.00,North,7,2.0,5.0,87,0.00,,,0.00,,2013-03-15 14:22:00,
2013-03-15 04:32:00,63.0,59.0,-100.00,North,7,2.0,5.0,87,0.00,,,0.00,,2013-03-15 14:32:00,
2013-03-15 04:41:00,62.0,59.0,-100.00,North,11,3.0,6.0,90,0.00,,,0.00,,2013-03-15 14:41:00,
2013-03-15 05:02:00,62.0,59.0,-100.00,North,11,3.0,6.0,90,0.00,,,0.00,,2013-03-15 15:02:00,
2013-03-15 05:12:00,62.0,59.0,-100.00,North,11,3.0,6.0,90,0.00,,,0.00,,2013-03-15 15:12:00,
2013-03-15 05:22:00,62.0,59.0,-100.00,North,11,3.0,6.0,90,0.00,,,0.00,,2013-03-15 15:22:00,
2013-03-15 05:32:00,62.0,59.0,-100.00,North,11,3.0,6.0,90,0.00,,,0.00,,2013-03-15 15:32:00,
2013-03-15 05:41:00,61.0,58.0,-100.00,NNW,332,3.0,5.0,90,0.00,,,0.00,,2013-03-15 15:41:00,
2013-03-15 06:12:00,61.0,58.0,-100.00,NNW,332,3.0,5.0,90,0.00,,,0.00,,2013-03-15 16:12:00,
2013-03-15 06:22:00,61.0,58.0,-100.00,NNW,332,3.0,5.0,90,0.00,,,0.00,,2013-03-15 16:22:00,
2013-03-15 06:32:00,61.0,58.0,-100.00,NNW,332,3.0,5.0,90,0.00,,,0.00,,2013-03-15 16:32:00,
2013-03-15 06:41:00,61.0,59.0,-100.00,North,5,2.0,5.0,93,0.00,,,0.00,,2013-03-15 16:41:00,
2013-03-15 07:02:00,61.0,59.0,-100.00,North,5,2.0,5.0,93,0.00,,,0.00,,2013-03-15 17:02:00,
2013-03-15 07:12:00,61.0,59.0,-100.00,North,5,2.0,5.0,93,0.00,,,0.00,,2013-03-15 17:12:00,
2013-03-15 07:22:00,61.0,59.0,-100.00,North,5,2.0,5.0,93,0.00,,,0.00,,2013-03-15 17:22:00,
2013-03-15 07:32:00,61.0,59.0,-100.00,North,5,2.0,5.0,93,0.00,,,0.00,,2013-03-15 17:32:00,
2013-03-15 07:41:00,65.0,61.0,-100.00,NNE,29,3.0,6.0,88,0.00,,,0.00,,2013-03-15 17:41:00,
2013-03-15 08:02:00,65.0,61.0,-100.00,NNE,29,3.0,6.0,88,0.00,,,0.00,,2013-03-15 18:02:00,
2013-03-15 08:12:00,65.0,61.0,-100.00,NNE,29,3.0,6.0,88,0.00,,,0.00,,2013-03-15 18:12:00,
2013-03-15 08:22:00,65.0,61.0,-100.00,NNE,29,3.0,6.0,88,0.00,,,0.00,,2013-03-15 18:22:00,
2013-03-15 08:32:00,65.0,61.0,-100.00,NNE,29,3.0,6.0,88,0.00,,,0.00,,2013-03-15 18:32:00,
2013-03-15 08:41:00,70.0,62.0,-100.00,ENE,61,3.0,5.0,77,0.00,,,0.00,,2013-03-15 18:41:00,
2013-03-15 09:02:00,70.0,62.0,-100.00,ENE,61,3.0,5.0,77,0.00,,,0.00,,2013-03-15 19:02:00,
2013-03-15 09:12:00,70.0,62.0,-100.00,ENE,61,3.0,5.0,77,0.00,,,0.00,,2013-03-15 19:12:00,
2013-03-15 09:22:00,70.0,62.0,-100.00,ENE,61,3.0,5.0,77,0.00,,,0.00,,2013-03-15 19:22:00,
2013-03-15 09:32:00,70.0,62.0,-100.00,ENE,61,3.0,5.0,77,0.00,,,0.00,,2013-03-15 19:32:00,
2013-03-15 09:41:00,75.0,57.0,-100.00,WNW,282,7.0,14.0,53,0.00,,,-99.99,,2013-03-15 19:41:00,
2013-03-15 10:02:00,75.0,57.0,-100.00,WNW,282,7.0,14.0,53,0.00,,,-99.99,,2013-03-15 20:02:00,
2013-03-15 10:12:00,75.0,57.0,-100.00,WNW,282,7.0,14.0,53,0.00,,,-99.99,,2013-03-15 20:12:00,
2013-03-15 10:22:00,75.0,57.0,-100.00,WNW,282,7.0,14.0,53,0.00,,,-99.99,,2013-03-15 20:22:00,
2013-03-15 10:31:00,75.0,57.0,-100.00,WNW,282,7.0,14.0,53,0.00,,,-99.99,,2013-03-15 20:31:00,
2013-03-15 10:41:00,75.0,58.0,-100.00,West,274,7.0,15.0,55,0.00,,,0.00,,2013-03-15 20:41:00,
2013-03-15 11:02:00,75.0,58.0,-100.00,West,274,7.0,15.0,55,0.00,,,0.00,,2013-03-15 21:02:00,
2013-03-15 11:12:00,75.0,58.0,-100.00,West,274,7.0,15.0,55,0.00,,,0.00,,2013-03-15 21:12:00,
2013-03-15 11:22:00,75.0,58.0,-100.00,West,274,7.0,15.0,55,0.00,,,0.00,,2013-03-15 21:22:00,
2013-03-15 11:32:00,75.0,58.0,-100.00,West,274,7.0,15.0,55,0.00,,,0.00,,2013-03-15 21:32:00,
2013-03-15 11:41:00,77.0,58.0,-100.00,West,266,7.0,17.0,52,0.00,,,0.00,,2013-03-15 21:41:00,
2013-03-15 12:03:00,77.0,58.0,-100.00,West,266,7.0,17.0,52,0.00,,,0.00,,2013-03-15 22:03:00,
2013-03-15 12:13:00,77.0,58.0,-100.00,West,266,7.0,17.0,52,0.00,,,0.00,,2013-03-15 22:13:00,
2013-03-15 12:22:00,77.0,58.0,-100.00,West,266,7.0,17.0,52,0.00,,,0.00,,2013-03-15 22:22:00,
2013-03-15 12:32:00,77.0,58.0,-100.00,West,266,7.0,17.0,52,0.00,,,0.00,,2013-03-15 22:32:00,
2013-03-15 12:41:00,77.0,57.0,-100.00,West,279,8.0,16.0,51,0.00,,,0.00,,2013-03-15 22:41:00,
2013-03-15 13:02:00,77.0,57.0,-100.00,West,279,8.0,16.0,51,0.00,,,0.00,,2013-03-15 23:02:00,
2013-03-15 13:12:00,77.0,57.0,-100.00,West,279,8.0,16.0,51,0.00,,,0.00,,2013-03-15 23:12:00,
2013-03-15 13:22:00,77.0,57.0,-100.00,West,279,8.0,16.0,51,0.00,,,0.00,,2013-03-15 23:22:00,
2013-03-15 13:32:00,77.0,57.0,-100.00,West,279,8.0,16.0,51,0.00,,,0.00,,2013-03-15 23:32:00,
2013-03-15 13:41:00,75.0,59.0,-100.00,West,276,8.0,16.0,57,0.00,,,0.00,,2013-03-15 23:41:00,
2013-03-15 14:02:00,75.0,59.0,-100.00,West,276,8.0,16.0,57,0.00,,,0.00,,2013-03-16 00:02:00,
2013-03-15 14:12:00,75.0,59.0,-100.00,West,276,8.0,16.0,57,0.00,,,0.00,,2013-03-16 00:12:00,
2013-03-15 14:22:00,75.0,59.0,-100.00,West,276,8.0,16.0,57,0.00,,,0.00,,2013-03-16 00:22:00,
2013-03-15 14:32:00,75.0,59.0,-100.00,West,276,8.0,16.0,57,0.00,,,0.00,,2013-03-16 00:32:00,
2013-03-15 14:41:00,74.0,61.0,-100.00,WNW,286,9.0,16.0,63,0.00,,,0.00,,2013-03-16 00:41:00,
2013-03-15 15:02:00,74.0,61.0,-100.00,WNW,286,9.0,16.0,63,0.00,,,0.00,,2013-03-16 01:02:00,
2013-03-15 15:12:00,74.0,61.0,-100.00,WNW,286,9.0,16.0,63,0.00,,,0.00,,2013-03-16 01:12:00,
2013-03-15 15:21:00,74.0,61.0,-100.00,WNW,286,9.0,16.0,63,0.00,,,0.00,,2013-03-16 01:21:00,
2013-03-15 15:32:00,74.0,61.0,-100.00,WNW,286,9.0,16.0,63,0.00,,,0.00,,2013-03-16 01:32:00,
2013-03-15 15:41:00,75.0,60.0,-100.00,WNW,289,8.0,15.0,60,0.00,,,0.00,,2013-03-16 01:41:00,
2013-03-15 16:02:00,75.0,60.0,-100.00,WNW,289,8.0,15.0,60,0.00,,,0.00,,2013-03-16 02:02:00,
2013-03-15 16:12:00,75.0,60.0,-100.00,WNW,289,8.0,15.0,60,0.00,,,0.00,,2013-03-16 02:12:00,
2013-03-15 16:22:00,75.0,60.0,-100.00,WNW,289,8.0,15.0,60,0.00,,,0.00,,2013-03-16 02:22:00,
2013-03-15 16:32:00,75.0,60.0,-100.00,WNW,289,8.0,15.0,60,0.00,,,0.00,,2013-03-16 02:32:00,
2013-03-15 16:41:00,75.0,59.0,-100.00,WNW,283,5.0,16.0,57,0.00,,,0.00,,2013-03-16 02:41:00,
2013-03-15 17:02:00,75.0,59.0,-100.00,WNW,283,5.0,16.0,57,0.00,,,0.00,,2013-03-16 03:02:00,
2013-03-15 17:12:00,75.0,59.0,-100.00,WNW,283,5.0,16.0,57,0.00,,,0.00,,2013-03-16 03:12:00,
2013-03-15 17:21:00,75.0,59.0,-100.00,WNW,283,5.0,16.0,57,0.00,,,0.00,,2013-03-16 03:21:00,
2013-03-15 17:32:00,75.0,59.0,-100.00,WNW,283,5.0,16.0,57,0.00,,,0.00,,2013-03-16 03:32:00,
2013-03-15 17:41:00,73.0,56.0,-100.00,WNW,297,5.0,16.0,55,0.00,,,0.00,,2013-03-16 03:41:00,
2013-03-15 18:02:00,73.0,56.0,-100.00,WNW,297,5.0,16.0,55,0.00,,,0.00,,2013-03-16 04:02:00,
2013-03-15 18:12:00,73.0,56.0,-100.00,WNW,297,5.0,16.0,55,0.00,,,0.00,,2013-03-16 04:12:00,
2013-03-15 18:22:00,73.0,56.0,-100.00,WNW,297,5.0,16.0,55,0.00,,,0.00,,2013-03-16 04:22:00,
2013-03-15 18:32:00,73.0,56.0,-100.00,WNW,297,5.0,16.0,55,0.00,,,0.00,,2013-03-16 04:32:00,
2013-03-15 18:41:00,72.0,58.0,-100.00,WNW,283,4.0,11.0,61,0.00,,,0.00,,2013-03-16 04:41:00,
2013-03-15 19:02:00,72.0,58.0,-100.00,WNW,283,4.0,11.0,61,0.00,,,0.00,,2013-03-16 05:02:00,
2013-03-15 19:12:00,72.0,58.0,-100.00,WNW,283,4.0,11.0,61,0.00,,,0.00,,2013-03-16 05:12:00,
2013-03-15 19:21:00,72.0,58.0,-100.00,WNW,283,4.0,11.0,61,0.00,,,0.00,,2013-03-16 05:21:00,
2013-03-15 19:32:00,72.0,58.0,-100.00,WNW,283,4.0,11.0,61,0.00,,,0.00,,2013-03-16 05:32:00,
2013-03-15 19:41:00,71.0,59.0,-100.00,West,276,5.0,9.0,66,0.00,,,0.00,,2013-03-16 05:41:00,
2013-03-15 20:02:00,71.0,59.0,-100.00,West,276,5.0,9.0,66,0.00,,,0.00,,2013-03-16 06:02:00,
2013-03-15 20:12:00,71.0,59.0,-100.00,West,276,5.0,9.0,66,0.00,,,0.00,,2013-03-16 06:12:00,
2013-03-15 20:21:00,71.0,59.0,-100.00,West,276,5.0,9.0,66,0.00,,,0.00,,2013-03-16 06:21:00,
2013-03-15 20:32:00,71.0,59.0,-100.00,West,276,5.0,9.0,66,0.00,,,0.00,,2013-03-16 06:32:00,
2013-03-15 20:41:00,70.0,59.0,-100.00,NE,35,5.0,8.0,69,0.00,,,0.00,,2013-03-16 06:41:00,
2013-03-15 21:02:00,70.0,59.0,-100.00,NE,35,5.0,8.0,69,0.00,,,0.00,,2013-03-16 07:02:00,
2013-03-15 21:12:00,70.0,59.0,-100.00,NE,35,5.0,8.0,69,0.00,,,0.00,,2013-03-16 07:12:00,
2013-03-15 21:22:00,70.0,59.0,-100.00,NE,35,5.0,8.0,69,0.00,,,0.00,,2013-03-16 07:22:00,
2013-03-15 21:32:00,70.0,59.0,-100.00,NE,35,5.0,8.0,69,0.00,,,0.00,,2013-03-16 07:32:00,
2013-03-15 21:41:00,69.0,62.0,-100.00,NNE,14,5.0,10.0,79,0.00,,,0.00,,2013-03-16 07:41:00,
2013-03-15 22:02:00,69.0,62.0,-100.00,NNE,14,5.0,10.0,79,0.00,,,0.00,,2013-03-16 08:02:00,
2013-03-15 22:12:00,69.0,62.0,-100.00,NNE,14,5.0,10.0,79,0.00,,,0.00,,2013-03-16 08:12:00,
2013-03-15 22:22:00,69.0,62.0,-100.00,NNE,14,5.0,10.0,79,0.00,,,0.00,,2013-03-16 08:22:00,
2013-03-15 22:32:00,69.0,62.0,-100.00,NNE,14,5.0,10.0,79,0.00,,,0.00,,2013-03-16 08:32:00,
2013-03-15 22:41:00,68.0,62.0,-100.00,North,356,4.0,11.0,81,0.00,,,0.00,,2013-03-16 08:41:00,
2013-03-15 23:01:00,68.0,62.0,-100.00,North,356,4.0,11.0,81,0.00,,,0.00,,2013-03-16 09:01:00,
2013-03-15 23:12:00,68.0,62.0,-100.00,North,356,4.0,11.0,81,0.00,,,0.00,,2013-03-16 09:12:00,
2013-03-15 23:22:00,68.0,62.0,-100.00,North,356,4.0,11.0,81,0.00,,,0.00,,2013-03-16 09:22:00,
2013-03-15 23:32:00,68.0,62.0,-100.00,North,356,4.0,11.0,81,0.00,,,0.00,,2013-03-16 09:32:00,
2013-03-15 23:41:00,68.0,62.0,-100.00,NNE,12,6.0,11.0,80,0.00,,,0.00,,2013-03-16 09:41:00,